Airfield :







YOU CAN JOIN US ON...

 
LOGIN :

Register | Disclaimer

   EN    FR    IT 

 









Legend :    VFR   Marginal VFR   IFR   Intensive IFR   Very Intensive IFR
Visi :
Ceiling :
>= 8 km
>= 3000ft
5 to 8 km
1000 to 3000 ft
1500m to 5 km
500 to 1000 ft
800 to 1500m
200 to 500 ft
< 800m
< 200 ft
Symbols :   Thunderstorms  Fog  Heavy snow  Heavy precipitations  Wind > 20 kt






- Airport Elevation : 377 ft
- IATA code : YPS


CYPD - Port Hawkesbury

CURRENT METAR :
  • 061739Z AUTO 13006KT 9SM -RA FEW011 SCT023 BKN035 BKN050 17/16 A2977 RMK SLP083 DENSITY ALT 800FT

EXPIRED METARs :
  • 061700Z AUTO 14006KT 9SM -RA OVC013 17/15 A2979 RMK SLP089 DENSITY ALT 800FT
  • 061644Z AUTO 14007KT 9SM -RA OVC015 17/15 A2979 RMK SLP090 DENSITY ALT 800FT
  • 061600Z AUTO 14006KT 9SM OVC015 18/15 A2980 RMK SLP093 DENSITY ALT 900FT
  • 061500Z AUTO 14004KT 120V180 9SM OVC017 19/16 A2980 RMK SLP093 DENSITY ALT 1000FT

TAF N/A
CZQM FIR / North America



MET'MAP, your aeronautical weather chart ! - Copyright ORBIFLY December 2007 - Disclaimer

ORBIFLY MET'MAP TEAM :

Programming & Development : Alexandra Zaïnal
Concept & original design : Baudouin d'Aumeries
Assistance for programming : Marc-Olivier Méhu
Technical & hardware support : Manuel Goepfert

Contact : metmap@orbifly.com




SOURCES & CREDITS :

   NOAA